Time;durP1;ratioP1;P1;durP2;ratioP2;P2;SDS_P1;SDS_P2;PMS_P1;PMS_P2;Temp;Humidity;BMP_temperature;BMP_pressure;BME280_temperature;BME280_humidity;BME280_pressure;Samples;Min_cycle;Max_cycle;Signal;HPM_P1;HPM_P2
2021/01/10 00:00:12;;;;;;;1.70;1.70;;;;;;;-0.15;100.00;101885.94;4382533;32;20089;-73
2021/01/10 00:02:38;;;;;;;1.50;1.50;;;;;;;-0.07;100.00;101890.66;4379055;32;20513;-72
2021/01/10 00:05:05;;;;;;;1.40;1.40;;;;;;;-0.13;100.00;101891.94;4387030;32;20094;-72
2021/01/10 00:07:30;;;;;;;1.50;1.50;;;;;;;-0.07;100.00;101888.88;4381339;32;20062;-73
2021/01/10 00:09:56;;;;;;;1.42;1.42;;;;;;;-0.07;100.00;101882.75;4383387;32;20070;-72
2021/01/10 00:12:22;;;;;;;1.58;1.58;;;;;;;-0.03;100.00;101871.09;4380055;32;20097;-72
2021/01/10 00:14:48;;;;;;;1.60;1.60;;;;;;;-0.90;100.00;101723.91;4381096;32;20089;-72
2021/01/10 00:17:13;;;;;;;1.95;1.85;;;;;;;-0.03;100.00;101864.03;4383355;32;20618;-72
2021/01/10 00:19:41;;;;;;;1.85;1.77;;;;;;;-0.04;100.00;101867.59;4383906;32;20695;-73
2021/01/10 00:22:10;;;;;;;1.70;1.70;;;;;;;-0.03;100.00;101868.44;4391656;32;20073;-72
2021/01/10 00:24:35;;;;;;;1.40;1.40;;;;;;;-0.04;100.00;101862.34;4384749;32;20061;-71
2021/01/10 00:27:00;;;;;;;1.58;1.58;;;;;;;-0.01;100.00;101866.53;4382888;32;20581;-72
2021/01/10 00:29:26;;;;;;;1.80;1.70;;;;;;;-0.01;100.00;101861.28;4382682;32;20092;-73
2021/01/10 00:31:51;;;;;;;1.95;1.85;;;;;;;0.02;100.00;101870.72;4378496;32;20128;-73
2021/01/10 00:34:17;;;;;;;1.40;1.40;;;;;;;-0.29;100.00;101812.47;4384586;32;20629;-72
2021/01/10 00:36:42;;;;;;;1.83;1.83;;;;;;;-0.80;100.00;101735.44;4384276;32;20092;-72
2021/01/10 00:39:09;;;;;;;1.30;1.30;;;;;;;0.03;100.00;101870.63;4397464;32;20088;-73
2021/01/10 00:41:38;;;;;;;1.55;1.55;;;;;;;-0.07;100.00;101885.38;4388836;32;20348;-73
2021/01/10 00:44:04;;;;;;;1.80;1.70;;;;;;;-0.10;100.00;101883.81;4397481;32;20457;-73
2021/01/10 00:46:31;;;;;;;1.40;1.40;;;;;;;-0.20;100.00;101874.91;4400804;32;20088;-74
2021/01/10 00:48:56;;;;;;;1.42;1.42;;;;;;;-0.20;100.00;101888.06;4395141;32;20408;-73
2021/01/10 00:51:22;;;;;;;1.50;1.50;;;;;;;-0.14;100.00;101876.25;4400251;32;20060;-74
2021/01/10 00:53:47;;;;;;;1.90;1.80;;;;;;;-0.44;100.00;101832.81;4397889;32;20082;-72
2021/01/10 00:56:12;;;;;;;1.65;1.65;;;;;;;-0.19;100.00;101879.22;4397268;32;20471;-72
2021/01/10 00:58:38;;;;;;;1.40;1.40;;;;;;;-0.17;100.00;101884.37;4410471;32;20593;-74
2021/01/10 01:01:03;;;;;;;1.50;1.50;;;;;;;-0.17;100.00;101890.47;4403493;32;20084;-74
2021/01/10 01:03:29;;;;;;;1.50;1.50;;;;;;;-0.17;100.00;101882.59;4396910;32;20080;-73
2021/01/10 01:05:54;;;;;;;1.50;1.50;;;;;;;-0.16;100.00;101876.38;4401021;32;20625;-74
2021/01/10 01:08:19;;;;;;;1.40;1.40;;;;;;;-0.12;100.00;101880.47;4396818;32;20068;-74
2021/01/10 01:10:46;;;;;;;1.30;1.30;;;;;;;-0.12;100.00;101880.47;4400134;32;20459;-73
2021/01/10 01:13:11;;;;;;;1.58;1.58;;;;;;;-0.17;100.00;101879.97;4398969;32;20311;-73
2021/01/10 01:15:37;;;;;;;4.35;1.73;;;;;;;-0.18;100.00;101878.28;4397992;32;20081;-72
2021/01/10 01:18:02;;;;;;;1.37;1.37;;;;;;;-0.69;100.00;101810.03;4412516;32;20076;-74
2021/01/10 01:20:28;;;;;;;1.55;1.55;;;;;;;-0.27;100.00;101894.72;4398354;32;20176;-74
2021/01/10 01:22:53;;;;;;;1.52;1.52;;;;;;;-0.33;100.00;101895.13;4397492;32;20579;-74
2021/01/10 01:25:18;;;;;;;1.33;1.33;;;;;;;-0.39;100.00;101885.91;4410548;32;20073;-74
2021/01/10 01:27:44;;;;;;;1.40;1.40;;;;;;;-0.37;100.00;101893.69;4398229;32;20476;-74
2021/01/10 01:30:09;;;;;;;1.58;1.58;;;;;;;-1.40;100.00;101734.34;4398067;32;20084;-73
2021/01/10 01:32:35;;;;;;;1.30;1.30;;;;;;;-0.37;100.00;101888.41;4400609;32;20076;-73
2021/01/10 01:35:01;;;;;;;2.30;2.20;;;;;;;-0.64;100.00;101855.22;4397825;32;20598;-73
2021/01/10 01:37:26;;;;;;;1.50;1.50;;;;;;;-0.43;100.00;101880.00;4396258;32;20083;-74
2021/01/10 01:39:54;;;;;;;1.50;1.50;;;;;;;-0.43;100.00;101893.16;4400166;32;20108;-73
2021/01/10 01:42:19;;;;;;;1.45;1.45;;;;;;;-0.47;100.00;101888.22;4410943;32;20196;-72
2021/01/10 01:44:45;;;;;;;1.20;1.20;;;;;;;-0.44;100.00;101904.59;4406740;32;20648;-72
2021/01/10 01:47:13;;;;;;;1.65;1.65;;;;;;;-0.43;100.00;101901.03;4408373;32;20076;-73
2021/01/10 01:49:38;;;;;;;1.70;1.70;;;;;;;-0.38;100.00;101913.84;4397386;32;20103;-72
2021/01/10 01:52:04;;;;;;;1.30;1.30;;;;;;;-0.39;100.00;101907.75;4399114;32;20100;-75
2021/01/10 01:54:30;;;;;;;1.42;1.42;;;;;;;-0.38;100.00;101913.84;4398977;32;20069;-72
2021/01/10 01:56:55;;;;;;;1.60;1.60;;;;;;;-0.41;100.00;101904.41;4396714;32;20351;-72
2021/01/10 01:59:20;;;;;;;1.30;1.30;;;;;;;-0.39;100.00;101897.25;4400339;32;20065;-74
2021/01/10 02:01:46;;;;;;;1.33;1.33;;;;;;;-0.30;100.00;101910.69;4395834;32;20469;-72
2021/01/10 02:04:24;;;;;;;1.95;1.77;;;;;;;-0.34;100.00;101909.25;4400144;32;20126;-74
2021/01/10 02:06:52;;;;;;;1.40;1.40;;;;;;;-0.39;100.00;101905.13;4421808;32;20077;-73
2021/01/10 02:09:17;;;;;;;2.12;2.03;;;;;;;-0.48;100.00;101892.62;4426634;32;20065;-74
2021/01/10 02:11:43;;;;;;;1.40;1.40;;;;;;;-0.41;100.00;101898.31;4398213;32;20079;-73
2021/01/10 02:14:10;;;;;;;1.30;1.30;;;;;;;-0.36;100.00;101895.34;4420141;32;20080;-72
2021/01/10 02:16:36;;;;;;;1.60;1.60;;;;;;;-0.36;100.00;101897.97;4401001;32;20613;-73
2021/01/10 02:19:04;;;;;;;1.40;1.40;;;;;;;-0.49;100.00;101904.09;4404955;32;20180;-73
2021/01/10 02:21:29;;;;;;;1.30;1.30;;;;;;;-0.52;100.00;101906.91;4404271;32;20083;-73
2021/01/10 02:24:00;;;;;;;2.33;2.22;;;;;;;-0.54;100.00;101908.81;4401107;32;20376;-72
2021/01/10 02:26:27;;;;;;;1.55;1.55;;;;;;;-0.98;100.00;101834.75;4400000;32;20804;-73
2021/01/10 02:28:52;;;;;;;1.33;1.33;;;;;;;-0.56;100.00;101900.22;4399699;32;20077;-72
2021/01/10 02:31:18;;;;;;;1.50;1.50;;;;;;;-0.56;100.00;101894.94;4407037;32;20141;-73
2021/01/10 02:33:54;;;;;;;1.30;1.30;;;;;;;-0.58;100.00;101896.84;4408103;32;20605;-73
2021/01/10 02:36:36;;;;;;;2.15;2.05;;;;;;;-0.59;100.00;101897.78;4414648;32;20095;-73
2021/01/10 02:39:07;;;;;;;1.85;1.83;;;;;;;-0.63;100.00;101894.53;4426320;32;20091;-72
2021/01/10 02:41:53;;;;;;;2.90;2.80;;;;;;;-0.66;100.00;101893.91;4429509;32;20084;-74
2021/01/10 02:44:27;;;;;;;1.30;1.30;;;;;;;-0.67;100.00;101897.47;4417091;32;20095;-74
2021/01/10 02:46:52;;;;;;;3.05;2.85;;;;;;;-0.67;100.00;101892.22;4400380;32;20234;-73
2021/01/10 02:49:18;;;;;;;1.30;1.30;;;;;;;-0.68;100.00;101890.56;4409781;32;20847;-73
2021/01/10 02:51:47;;;;;;;1.95;1.87;;;;;;;-0.67;100.00;101892.22;4402018;32;20053;-74
2021/01/10 02:54:12;;;;;;;1.40;1.40;;;;;;;-0.90;100.00;101849.97;4409100;32;20088;-73
2021/01/10 02:57:02;;;;;;;1.50;1.50;;;;;;;-0.73;100.00;101874.25;4417191;32;20088;-74
2021/01/10 02:59:28;;;;;;;1.50;1.50;;;;;;;-1.30;100.00;101771.31;4422967;32;20081;-73
2021/01/10 03:01:56;;;;;;;2.12;2.03;;;;;;;-0.58;100.00;101891.59;4416031;32;20543;-73
2021/01/10 03:04:21;;;;;;;1.20;1.20;;;;;;;-0.55;100.00;101891.37;4406945;32;20052;-73
2021/01/10 03:06:47;;;;;;;1.30;1.30;;;;;;;-1.10;100.00;101798.84;4406554;32;20455;-72
2021/01/10 03:09:13;;;;;;;1.37;1.37;;;;;;;-0.52;100.00;101899.03;4392500;32;20096;-74
2021/01/10 03:11:40;;;;;;;1.40;1.40;;;;;;;-0.48;100.00;101891.81;4404869;32;20064;-73
2021/01/10 03:14:06;;;;;;;1.40;1.40;;;;;;;-0.45;100.00;101884.53;4385830;32;20083;-72
2021/01/10 03:16:31;;;;;;;1.40;1.40;;;;;;;-0.41;100.00;101879.91;4390734;32;20073;-72
2021/01/10 03:18:57;;;;;;;1.62;1.62;;;;;;;-0.70;100.00;101853.03;4398267;32;20069;-73
2021/01/10 03:21:22;;;;;;;1.48;1.48;;;;;;;-0.37;100.00;101888.41;4398908;32;20061;-73
2021/01/10 03:23:48;;;;;;;1.92;1.83;;;;;;;-0.41;100.00;101875.47;4398588;32;20088;-73
2021/01/10 03:26:16;;;;;;;2.35;2.25;;;;;;;-0.43;100.00;101894.94;4397389;32;20085;-73
2021/01/10 03:28:41;;;;;;;1.30;1.30;;;;;;;-0.45;100.00;101853.00;4400894;32;20096;-73
2021/01/10 03:31:08;;;;;;;1.20;1.20;;;;;;;-0.37;100.00;101862.97;4395134;32;20077;-73
2021/01/10 03:33:34;;;;;;;2.10;2.00;;;;;;;-1.11;100.00;101756.94;4399315;32;20138;-73
2021/01/10 03:36:00;;;;;;;1.50;1.50;;;;;;;-0.44;100.00;101867.81;4399513;32;20681;-73
2021/01/10 03:38:25;;;;;;;1.30;1.30;;;;;;;-0.49;100.00;101862.03;4398759;32;20065;-73
2021/01/10 03:40:51;;;;;;;1.40;1.40;;;;;;;-0.52;100.00;101858.78;4396049;32;20081;-73
2021/01/10 03:43:16;;;;;;;1.42;1.42;;;;;;;-0.58;100.00;101854.81;4400287;32;20080;-73
2021/01/10 03:45:41;;;;;;;1.40;1.40;;;;;;;-0.70;100.00;101853.87;4400910;32;20673;-73
2021/01/10 03:48:07;;;;;;;1.30;1.30;;;;;;;-0.79;100.00;101851.88;4398117;32;20069;-73
2021/01/10 03:50:33;;;;;;;1.50;1.50;;;;;;;-0.88;100.00;101866.50;4397502;32;20487;-73
2021/01/10 03:52:58;;;;;;;1.50;1.50;;;;;;;-0.96;100.00;101877.50;4395426;32;20614;-73
2021/01/10 03:55:23;;;;;;;1.30;1.30;;;;;;;-1.00;100.00;101859.44;4392163;32;20079;-72
2021/01/10 03:57:49;;;;;;;2.25;1.95;;;;;;;-1.00;100.00;101872.56;4402013;32;20064;-73
2021/01/10 04:00:14;;;;;;;1.40;1.40;;;;;;;-1.00;100.00;101860.28;4398775;32;20635;-74
2021/01/10 04:02:40;;;;;;;1.20;1.20;;;;;;;-1.00;100.00;101865.53;4399552;32;20914;-74
2021/01/10 04:05:09;;;;;;;1.40;1.40;;;;;;;-0.98;100.00;101862.81;4399545;32;20065;-72
2021/01/10 04:07:34;;;;;;;1.60;1.60;;;;;;;-0.98;100.00;101874.16;4399068;32;20080;-72
2021/01/10 04:09:59;;;;;;;2.20;2.10;;;;;;;-1.23;100.00;101819.81;4393180;32;20118;-72
2021/01/10 04:12:25;;;;;;;2.90;2.62;;;;;;;-0.98;100.00;101874.16;4398069;32;20076;-72
2021/01/10 04:14:55;;;;;;;1.40;1.40;;;;;;;-0.94;100.00;101869.53;4414440;32;20586;-72
2021/01/10 04:17:25;;;;;;;1.40;1.40;;;;;;;-0.92;100.00;101866.81;4394700;32;20061;-72
2021/01/10 04:19:50;;;;;;;1.60;1.60;;;;;;;-1.10;100.00;101826.87;4410189;32;20064;-72
2021/01/10 04:22:15;;;;;;;1.30;1.30;;;;;;;-0.85;100.00;101862.81;4396758;32;20076;-72
2021/01/10 04:24:41;;;;;;;1.40;1.40;;;;;;;-1.10;100.00;101816.37;4395715;32;20065;-71
2021/01/10 04:27:06;;;;;;;1.90;1.80;;;;;;;-0.76;100.00;101862.16;4398093;32;20080;-72
2021/01/10 04:29:32;;;;;;;1.40;1.40;;;;;;;-0.77;100.00;101861.31;4418888;32;20624;-72
2021/01/10 04:31:57;;;;;;;1.50;1.50;;;;;;;-0.71;100.00;101867.94;4401379;32;20314;-72
2021/01/10 04:34:22;;;;;;;1.40;1.40;;;;;;;-0.73;100.00;101859.31;4407888;32;20060;-72
2021/01/10 04:36:48;;;;;;;1.48;1.48;;;;;;;-0.66;100.00;101862.38;4417588;32;20577;-72
2021/01/10 04:39:13;;;;;;;1.30;1.30;;;;;;;-0.65;100.00;101866.69;4408962;32;20107;-73
2021/01/10 04:41:39;;;;;;;1.40;1.40;;;;;;;-0.67;100.00;101865.94;4397661;32;20076;-73
2021/01/10 04:44:04;;;;;;;2.15;2.05;;;;;;;-0.87;100.00;101836.63;4377464;32;20555;-74
2021/01/10 04:46:30;;;;;;;1.40;1.40;;;;;;;-0.70;100.00;101860.91;4397763;32;20185;-74
2021/01/10 04:48:56;;;;;;;1.25;1.25;;;;;;;-0.72;100.00;101863.66;4387533;32;20545;-72
2021/01/10 04:51:23;;;;;;;1.42;1.42;;;;;;;-0.73;100.00;101867.22;4387478;32;20084;-73
2021/01/10 04:53:49;;;;;;;2.22;2.05;;;;;;;-0.76;100.00;101863.03;4384570;32;20497;-74
2021/01/10 04:56:14;;;;;;;1.55;1.55;;;;;;;-0.74;100.00;101864.69;4387219;32;20126;-74
2021/01/10 04:58:41;;;;;;;1.30;1.30;;;;;;;-0.73;100.00;101856.69;4380379;32;20141;-73
2021/01/10 05:01:06;;;;;;;1.35;1.35;;;;;;;-0.73;100.00;101869.00;4381651;32;20394;-72
2021/01/10 05:03:31;;;;;;;1.50;1.50;;;;;;;-0.76;100.00;101863.03;4389086;32;20872;-72
2021/01/10 05:05:57;;;;;;;1.35;1.35;;;;;;;-0.81;100.00;101853.75;4385335;32;20065;-73
2021/01/10 05:08:22;;;;;;;1.40;1.40;;;;;;;-1.55;100.00;101762.50;4384541;32;20204;-72
2021/01/10 05:10:48;;;;;;;1.40;1.40;;;;;;;-0.83;100.00;101856.53;4391417;32;20184;-72
2021/01/10 05:13:13;;;;;;;1.30;1.30;;;;;;;-0.85;100.00;101850.50;4380049;32;20481;-72
2021/01/10 05:15:39;;;;;;;1.27;1.27;;;;;;;-0.86;100.00;101856.72;4386927;32;20089;-72
2021/01/10 05:18:04;;;;;;;1.52;1.52;;;;;;;-0.86;100.00;101856.72;4386266;32;20099;-71
2021/01/10 05:20:31;;;;;;;1.30;1.30;;;;;;;-0.86;100.00;101856.72;4386703;32;20666;-72
2021/01/10 05:22:57;;;;;;;2.00;1.90;;;;;;;-0.87;100.00;101856.81;4384386;32;20073;-73
2021/01/10 05:25:22;;;;;;;2.25;1.85;;;;;;;-0.86;100.00;101853.22;4388137;32;20103;-73
2021/01/10 05:27:49;;;;;;;1.58;1.58;;;;;;;-0.86;100.00;101854.09;4379353;32;20130;-73
2021/01/10 05:30:15;;;;;;;1.87;1.80;;;;;;;-0.92;100.00;101851.88;4387499;32;20143;-73
2021/01/10 05:32:40;;;;;;;1.30;1.30;;;;;;;-0.89;100.00;101856.94;4383834;32;20093;-72
2021/01/10 05:35:07;;;;;;;1.65;1.65;;;;;;;-0.90;100.00;101855.22;4396916;32;20459;-73
2021/01/10 05:37:32;;;;;;;1.60;1.60;;;;;;;-0.90;100.00;101849.97;4397155;32;20061;-73
2021/01/10 05:39:57;;;;;;;2.42;2.25;;;;;;;-0.91;100.00;101856.19;4382838;32;20089;-73
2021/01/10 05:42:28;;;;;;;1.40;1.40;;;;;;;-0.94;100.00;101856.41;4383713;32;20066;-72
2021/01/10 05:44:53;;;;;;;1.40;1.40;;;;;;;-0.94;100.00;101853.78;4387768;32;20571;-72
2021/01/10 05:47:19;;;;;;;1.30;1.30;;;;;;;-0.92;100.00;101854.50;4389965;32;20417;-73
2021/01/10 05:49:48;;;;;;;1.37;1.37;;;;;;;-0.91;100.00;101856.19;4384858;32;20076;-72
2021/01/10 05:52:14;;;;;;;1.40;1.40;;;;;;;-1.18;100.00;101816.91;4397645;32;20073;-73
2021/01/10 05:54:46;;;;;;;1.73;1.73;;;;;;;-1.21;100.00;101825.84;4385367;32;20093;-73
2021/01/10 05:57:13;;;;;;;1.40;1.40;;;;;;;-1.05;100.00;101861.53;4393812;32;20589;-73
2021/01/10 05:59:45;;;;;;;2.10;2.00;;;;;;;-1.07;100.00;101866.06;4386828;32;20159;-73
2021/01/10 06:02:10;;;;;;;1.60;1.50;;;;;;;-1.07;100.00;101866.06;4412502;32;20872;-73
2021/01/10 06:04:35;;;;;;;3.58;3.25;;;;;;;-1.09;100.00;101865.31;4387548;32;20092;-73
2021/01/10 06:07:01;;;;;;;2.08;1.98;;;;;;;-2.02;100.00;101729.78;4387818;32;20061;-72
2021/01/10 06:09:27;;;;;;;2.40;2.30;;;;;;;-1.24;100.00;101862.78;4386939;32;20068;-72
2021/01/10 06:11:52;;;;;;;1.40;1.40;;;;;;;-1.28;100.00;101866.53;4389514;32;20181;-72
2021/01/10 06:14:22;;;;;;;1.85;1.75;;;;;;;-1.29;100.00;101864.88;4389092;32;20073;-72
2021/01/10 06:17:08;;;;;;;1.70;1.65;;;;;;;-1.37;100.00;101859.28;4390687;32;20711;-73
2021/01/10 06:19:34;;;;;;;1.40;1.40;;;;;;;-1.30;100.00;101871.06;4384833;32;20820;-73
2021/01/10 06:22:00;;;;;;;1.42;1.42;;;;;;;-1.29;100.00;101874.53;4385229;32;20061;-73
2021/01/10 06:24:27;;;;;;;1.40;1.40;;;;;;;-1.34;100.00;101869.59;4387937;32;20147;-73
2021/01/10 06:27:05;;;;;;;1.50;1.50;;;;;;;-1.56;100.00;101851.81;4383493;32;20077;-73
2021/01/10 06:29:37;;;;;;;1.37;1.37;;;;;;;-1.57;100.00;101871.97;4403677;32;20211;-73
2021/01/10 06:32:02;;;;;;;1.42;1.42;;;;;;;-1.59;100.00;101860.69;4396143;32;20404;-73
2021/01/10 06:34:27;;;;;;;1.30;1.30;;;;;;;-1.52;100.00;101880.38;4390884;32;21840;-73
2021/01/10 06:36:53;;;;;;;1.48;1.48;;;;;;;-1.67;100.00;101844.66;4384948;32;20667;-73
2021/01/10 06:39:18;;;;;;;1.20;1.20;;;;;;;-1.66;100.00;101840.22;4391409;32;20091;-74
2021/01/10 06:41:59;;;;;;;1.35;1.35;;;;;;;-1.43;100.00;101871.06;4383394;32;20078;-73
2021/01/10 06:44:25;;;;;;;1.50;1.50;;;;;;;-1.43;100.00;101878.06;4399462;32;20143;-73
2021/01/10 06:46:51;;;;;;;1.50;1.50;;;;;;;-1.43;100.00;101865.81;4387069;32;20092;-73
2021/01/10 06:49:16;;;;;;;1.30;1.30;;;;;;;-1.44;100.00;101865.91;4395312;32;20511;-72
2021/01/10 06:51:44;;;;;;;1.90;1.80;;;;;;;-1.44;100.00;101868.53;4386842;32;20084;-72
2021/01/10 06:54:09;;;;;;;3.33;3.15;;;;;;;-1.45;100.00;101872.09;4386377;32;20586;-73
2021/01/10 06:56:34;;;;;;;1.67;1.67;;;;;;;-1.52;100.00;101869.88;4396365;32;20219;-74
2021/01/10 06:59:10;;;;;;;1.60;1.60;;;;;;;-1.50;100.00;101872.41;4388999;32;20083;-73
2021/01/10 07:01:48;;;;;;;1.83;1.83;;;;;;;-1.59;100.00;101867.75;4382957;32;20074;-73
2021/01/10 07:04:46;;;;;;;1.42;1.42;;;;;;;-1.64;100.00;101875.91;4411963;32;20080;-73
2021/01/10 07:07:38;;;;;;;1.45;1.45;;;;;;;-1.70;100.00;101869.28;4396652;32;20084;-73
2021/01/10 07:10:05;;;;;;;1.27;1.27;;;;;;;-1.80;100.00;101849.00;4400128;32;20072;-73
2021/01/10 07:12:30;;;;;;;1.30;1.30;;;;;;;-1.85;100.00;101877.31;4380493;32;20062;-74
2021/01/10 07:15:18;;;;;;;1.30;1.30;;;;;;;-1.78;100.00;101868.09;4383653;32;20469;-74
2021/01/10 07:18:02;;;;;;;1.20;1.20;;;;;;;-1.70;100.00;101873.69;4406449;32;20080;-76
2021/01/10 07:20:36;;;;;;;1.20;1.20;;;;;;;-1.66;100.00;101887.44;4398593;32;20083;-75
2021/01/10 07:23:27;;;;;;;1.67;1.67;;;;;;;-1.64;100.00;101880.31;4385049;32;20057;-74
2021/01/10 07:25:52;;;;;;;1.30;1.30;;;;;;;-1.62;100.00;101889.78;4396812;32;20130;-73
2021/01/10 07:28:40;;;;;;;1.30;1.30;;;;;;;-2.34;100.00;101782.53;4382508;32;20081;-73
2021/01/10 07:31:16;;;;;;;1.10;1.10;;;;;;;-1.62;100.00;101871.44;4382647;32;20065;-74
2021/01/10 07:33:42;;;;;;;1.55;1.55;;;;;;;-1.52;100.00;101890.87;4381006;32;20073;-73
2021/01/10 07:36:07;;;;;;;1.23;1.23;;;;;;;-1.51;100.00;101891.69;4382219;32;20482;-73
2021/01/10 07:38:33;;;;;;;2.05;1.87;;;;;;;-1.51;100.00;101886.44;4381476;32;20134;-74
2021/01/10 07:41:21;;;;;;;1.90;1.80;;;;;;;-1.51;100.00;101889.06;4384445;32;20508;-74
2021/01/10 07:43:54;;;;;;;1.33;1.33;;;;;;;-1.44;100.00;101892.16;4396862;32;20084;-75
2021/01/10 07:46:57;;;;;;;1.60;1.60;;;;;;;-1.43;100.00;101901.69;4386652;32;20150;-74
2021/01/10 07:49:26;;;;;;;2.12;2.03;;;;;;;-2.35;100.00;101749.38;4394931;32;20069;-78
2021/01/10 07:51:52;;;;;;;1.40;1.40;;;;;;;-1.65;100.00;101858.50;4388519;32;20073;-76
2021/01/10 07:54:18;;;;;;;1.20;1.20;;;;;;;-1.35;100.00;101907.28;4385521;32;20104;-75
2021/01/10 07:56:43;;;;;;;2.15;2.05;;;;;;;-1.34;100.00;101911.59;4384963;32;20135;-75
2021/01/10 07:59:18;;;;;;;1.17;1.17;;;;;;;-1.28;100.00;101902.47;4385240;32;20073;-75
2021/01/10 08:01:50;;;;;;;1.40;1.40;;;;;;;-1.28;100.00;101892.81;4385586;32;20207;-76
2021/01/10 08:04:33;;;;;;;1.40;1.40;;;;;;;-1.20;100.00;101897.56;4397598;32;20437;-75
2021/01/10 08:06:59;;;;;;;1.35;1.35;;;;;;;-1.21;100.00;101903.75;4387442;32;20069;-75
2021/01/10 08:09:32;;;;;;;1.87;1.80;;;;;;;-1.18;100.00;101912.25;4382015;32;20069;-75
2021/01/10 08:11:57;;;;;;;;;;;;;;;-1.14;100.00;101905.88;4389182;32;20073;-75
2021/01/10 08:14:23;;;;;;;1.50;1.50;;;;;;;-1.27;100.00;101876.12;4400510;32;20071;-75
2021/01/10 08:16:48;;;;;;;1.37;1.37;;;;;;;-1.04;100.00;101910.50;4387977;32;20085;-76
2021/01/10 08:19:17;;;;;;;1.30;1.30;;;;;;;-1.98;100.00;101757.50;4390084;32;20077;-75
2021/01/10 08:21:42;;;;;;;2.55;1.75;;;;;;;-1.07;100.00;101903.69;4397081;32;20076;-77
2021/01/10 08:24:08;;;;;;;1.30;1.30;;;;;;;-0.93;100.00;101912.38;4387494;32;20084;-76
2021/01/10 08:26:37;;;;;;;2.22;2.03;;;;;;;-1.21;100.00;101861.72;4387238;32;20610;-76
2021/01/10 08:29:06;;;;;;;1.40;1.40;;;;;;;-0.83;100.00;101913.44;4387787;32;20591;-76
2021/01/10 08:31:32;;;;;;;2.03;1.92;;;;;;;-0.79;100.00;101921.03;4385529;32;20069;-76
2021/01/10 08:34:05;;;;;;;1.70;1.70;;;;;;;-0.77;100.00;101929.63;4390281;32;20061;-76
2021/01/10 08:36:31;;;;;;;1.50;1.50;;;;;;;-0.85;100.00;101915.34;4397737;32;20210;-75
2021/01/10 08:39:00;;;;;;;1.98;1.87;;;;;;;-0.68;100.00;101928.16;4390926;32;20085;-75
2021/01/10 08:41:27;;;;;;;1.20;1.20;;;;;;;-0.74;100.00;101927.75;4410074;32;20056;-75
2021/01/10 08:43:57;;;;;;;1.65;1.62;;;;;;;-0.88;100.00;101911.16;4400228;32;20152;-76
2021/01/10 08:46:27;;;;;;;1.37;1.37;;;;;;;-0.89;100.00;101930.47;4386989;32;20065;-75
2021/01/10 08:48:52;;;;;;;1.10;1.10;;;;;;;-0.98;100.00;101905.66;4393966;32;20478;-76
2021/01/10 08:51:27;;;;;;;1.27;1.27;;;;;;;-0.73;100.00;101930.25;4390992;32;20709;-75
2021/01/10 08:53:53;;;;;;;1.30;1.30;;;;;;;-0.84;100.00;101931.00;4399755;32;20659;-76
2021/01/10 08:56:18;;;;;;;3.05;2.95;;;;;;;-0.77;100.00;101934.87;4391892;32;20097;-75
2021/01/10 08:58:44;;;;;;;1.33;1.33;;;;;;;-0.91;100.00;101942.88;4385933;32;20188;-75
2021/01/10 09:01:20;;;;;;;1.85;1.75;;;;;;;-0.98;100.00;101939.81;4391686;32;20084;-75
2021/01/10 09:04:04;;;;;;;1.30;1.30;;;;;;;-0.96;100.00;101943.16;4395401;32;20898;-78
2021/01/10 09:06:41;;;;;;;1.60;1.60;;;;;;;-0.89;100.00;101935.72;4407913;32;20077;-77
2021/01/10 09:09:28;;;;;;;1.40;1.40;;;;;;;-0.70;100.00;101948.47;4401329;32;20057;-77
2021/01/10 09:11:59;;;;;;;1.70;1.70;;;;;;;-0.61;100.00;101918.91;4398105;32;20107;-75
2021/01/10 09:14:25;;;;;;;1.60;1.60;;;;;;;-0.39;100.00;101934.03;4391953;32;20082;-76
2021/01/10 09:16:50;;;;;;;1.70;1.70;;;;;;;-0.59;100.00;101884.66;4384830;32;20084;-76
2021/01/10 09:19:19;;;;;;;1.67;1.60;;;;;;;-0.21;100.00;101931.06;4388297;32;20092;-74
2021/01/10 09:21:47;;;;;;;1.60;1.55;;;;;;;-0.17;100.00;101937.81;4393230;32;20270;-78
2021/01/10 09:24:16;;;;;;;1.50;1.50;;;;;;;-0.09;100.00;101940.72;4384207;32;20089;-76
2021/01/10 09:26:41;;;;;;;1.30;1.30;;;;;;;-0.18;100.00;101917.72;4387074;32;20434;-76
2021/01/10 09:29:17;;;;;;;1.58;1.50;;;;;;;-0.14;100.00;101927.06;4396556;32;20255;-75
2021/01/10 09:31:46;;;;;;;1.87;1.77;;;;;;;0.04;100.00;101956.50;4387227;32;20072;-76
2021/01/10 09:34:11;;;;;;;1.30;1.30;;;;;;;0.03;100.00;101948.72;4387829;32;20206;-77
2021/01/10 09:36:37;;;;;;;3.03;2.85;;;;;;;-0.09;100.00;101914.41;4388675;32;20083;-74
2021/01/10 09:39:03;;;;;;;1.75;1.75;;;;;;;0.14;100.00;101946.16;4385492;32;20091;-76
2021/01/10 09:41:31;;;;;;;1.40;1.40;;;;;;;0.23;100.00;101948.13;4388109;32;20076;-75
2021/01/10 09:43:58;;;;;;;1.50;1.50;;;;;;;-0.03;100.00;101915.81;4404839;32;20152;-75
2021/01/10 09:46:33;;;;;;;1.50;1.50;;;;;;;0.21;100.00;101941.28;4405103;32;20187;-76
2021/01/10 09:49:02;;;;;;;1.62;1.62;;;;;;;0.20;100.00;101940.44;4429949;32;20211;-74
2021/01/10 09:51:38;;;;;;;1.60;1.60;;;;;;;0.25;100.00;101924.34;4417679;32;20661;-77
2021/01/10 09:54:17;;;;;;;1.70;1.62;;;;;;;0.40;100.00;101919.72;4404762;32;20582;-77
2021/01/10 09:56:47;;;;;;;1.52;1.52;;;;;;;0.10;100.00;101865.75;4403522;32;20080;-76
2021/01/10 09:59:31;;;;;;;1.70;1.70;;;;;;;0.42;100.00;101945.00;4402599;32;20181;-75
2021/01/10 10:01:56;;;;;;;1.30;1.30;;;;;;;0.37;100.00;101913.75;4435854;32;20080;-77
2021/01/10 10:04:28;;;;;;;1.40;1.40;;;;;;;0.66;100.00;101944.16;4410869;32;20636;-77
2021/01/10 10:06:53;;;;;;;1.73;1.70;;;;;;;0.59;100.00;101901.66;4408428;32;20203;-76
2021/01/10 10:09:19;;;;;;;1.60;1.60;;;;;;;0.67;100.00;101890.53;4406153;32;20138;-75
2021/01/10 10:11:44;;;;;;;1.58;1.58;;;;;;;1.03;100.00;101931.72;4412854;32;20534;-75
2021/01/10 10:14:10;;;;;;;2.20;2.10;;;;;;;1.14;100.00;101936.19;4410300;32;20076;-74
2021/01/10 10:16:35;;;;;;;1.50;1.50;;;;;;;1.15;100.00;101939.66;4403994;32;20499;-75
2021/01/10 10:19:01;;;;;;;1.58;1.58;;;;;;;0.48;100.00;101835.78;4415349;32;20542;-75
2021/01/10 10:21:26;;;;;;;1.60;1.60;;;;;;;1.22;100.00;101943.50;4406400;32;20073;-76
2021/01/10 10:23:52;;;;;;;1.42;1.42;;;;;;;1.20;100.00;101943.62;4403539;32;20080;-76
2021/01/10 10:26:17;;;;;;;2.22;2.12;;;;;;;1.26;100.00;101937.88;4397225;32;20084;-78
2021/01/10 10:28:49;;;;;;;1.60;1.60;;;;;;;1.33;100.00;101933.00;4404654;32;20073;-75
2021/01/10 10:31:14;;;;;;;1.60;1.60;;;;;;;1.41;100.00;101938.50;4406096;32;20558;-77
2021/01/10 10:33:39;;;;;;;1.60;1.60;;;;;;;1.17;100.00;101903.47;4397477;32;20056;-76
2021/01/10 10:36:05;;;;;;;1.55;1.55;;;;;;;1.40;100.00;101934.19;4385020;32;20066;-74
2021/01/10 10:38:31;;;;;;;1.60;1.60;;;;;;;1.01;100.00;101864.28;4392005;32;20986;-76
2021/01/10 10:40:57;;;;;;;1.80;1.77;;;;;;;1.34;100.00;101902.19;4389652;32;20088;-75
2021/01/10 10:43:23;;;;;;;1.80;1.80;;;;;;;1.65;100.00;101932.28;4412013;32;20509;-75
2021/01/10 10:45:48;;;;;;;1.77;1.77;;;;;;;1.62;100.00;101922.81;4416433;32;20107;-75
2021/01/10 10:48:16;;;;;;;1.50;1.50;;;;;;;1.68;100.00;101945.22;4409147;32;20071;-75
2021/01/10 10:50:41;;;;;;;1.50;1.50;;;;;;;1.71;100.00;101928.31;4414373;32;20076;-78
2021/01/10 10:53:08;;;;;;;2.75;2.55;;;;;;;1.58;100.00;101915.25;4410993;32;20116;-75
2021/01/10 10:55:34;;;;;;;3.03;2.83;;;;;;;1.71;100.00;101918.63;4409040;32;20076;-75
2021/01/10 10:57:59;;;;;;;1.70;1.70;;;;;;;1.49;100.00;101893.91;4401997;32;20205;-75
2021/01/10 11:00:25;;;;;;;2.00;1.90;;;;;;;1.78;100.00;101924.25;4402304;32;20150;-77
2021/01/10 11:02:50;;;;;;;1.60;1.60;;;;;;;1.83;100.00;101920.28;4399942;32;20068;-76
2021/01/10 11:05:16;;;;;;;1.70;1.70;;;;;;;1.86;100.00;101917.41;4409747;32;20645;-76
2021/01/10 11:07:41;;;;;;;1.52;1.52;;;;;;;1.87;100.00;101891.88;4402769;32;20499;-76
2021/01/10 11:10:07;;;;;;;2.10;2.00;;;;;;;1.84;100.00;101906.12;4406162;32;20076;-76
2021/01/10 11:12:33;;;;;;;2.00;1.90;;;;;;;1.68;100.00;101888.03;4412687;32;20084;-76
2021/01/10 11:15:05;;;;;;;1.95;1.87;;;;;;;1.94;100.00;101913.31;4404075;32;20073;-74
2021/01/10 11:17:31;;;;;;;1.87;1.77;;;;;;;1.98;100.00;101909.47;4409063;32;20180;-74
2021/01/10 11:19:56;;;;;;;1.60;1.60;;;;;;;2.01;100.00;101898.69;4396616;32;20548;-76
2021/01/10 11:22:27;;;;;;;2.17;2.05;;;;;;;1.90;100.00;101859.09;4401145;32;20166;-74